Time,TemperatureF,DewpointF,PressureIn,WindDirection,WindDirectionDegrees,WindSpeedMPH,WindSpeedGustMPH,Humidity,HourlyPrecipIn,Conditions,Clouds,dailyrainin,SolarRadiationWatts/m^2,SoftwareType,DateUTC
2013-10-28 00:02:00,41.0,40.0,-100.00,NNW,327,2.0,12.0,96,0.02,,,0.92,0.000000,,2013-10-28 08:02:00,
2013-10-28 00:12:00,41.0,40.0,-100.00,NNW,327,2.0,12.0,96,0.02,,,0.92,0.000000,,2013-10-28 08:12:00,
2013-10-28 00:21:00,41.0,40.0,-100.00,NNW,327,2.0,12.0,96,0.02,,,0.92,0.000000,,2013-10-28 08:21:00,
2013-10-28 00:52:00,41.0,40.0,-100.00,NNE,33,4.0,9.0,97,0.01,,,0.93,0.000000,,2013-10-28 08:52:00,
2013-10-28 01:02:00,41.0,40.0,-100.00,NNE,33,4.0,9.0,97,0.01,,,0.93,0.000000,,2013-10-28 09:02:00,
2013-10-28 01:11:00,41.0,40.0,-100.00,NNE,33,4.0,9.0,97,0.01,,,0.93,0.000000,,2013-10-28 09:11:00,
2013-10-28 01:21:00,41.0,40.0,-100.00,NNE,33,4.0,9.0,97,0.01,,,0.93,0.000000,,2013-10-28 09:21:00,
2013-10-28 01:53:00,42.0,41.0,-100.00,NNE,14,3.0,7.0,97,0.01,,,0.94,0.000000,,2013-10-28 09:53:00,
2013-10-28 02:03:00,42.0,41.0,-100.00,NNE,14,3.0,7.0,97,0.01,,,0.94,0.000000,,2013-10-28 10:03:00,
2013-10-28 02:13:00,42.0,41.0,-100.00,NNE,14,3.0,7.0,97,0.01,,,0.94,0.000000,,2013-10-28 10:13:00,
2013-10-28 02:23:00,42.0,41.0,-100.00,NNE,14,3.0,7.0,97,0.01,,,0.94,0.000000,,2013-10-28 10:23:00,
2013-10-28 02:53:00,47.0,45.0,-100.00,SSW,198,2.0,7.0,93,0.01,,,0.95,0.000000,,2013-10-28 10:53:00,
2013-10-28 03:03:00,47.0,45.0,-100.00,SSW,198,2.0,7.0,93,0.01,,,0.95,0.000000,,2013-10-28 11:03:00,
2013-10-28 03:12:00,47.0,45.0,-100.00,SSW,198,2.0,7.0,93,0.01,,,0.95,0.000000,,2013-10-28 11:12:00,
2013-10-28 03:22:00,47.0,45.0,-100.00,SSW,198,2.0,7.0,93,0.01,,,0.95,0.000000,,2013-10-28 11:22:00,
2013-10-28 03:52:00,48.0,46.0,-100.00,South,178,1.0,7.0,93,0.04,,,0.99,0.000000,,2013-10-28 11:52:00,
2013-10-28 04:01:00,48.0,46.0,-100.00,South,178,1.0,7.0,93,0.04,,,0.99,0.000000,,2013-10-28 12:01:00,
2013-10-28 04:11:00,48.0,46.0,-100.00,South,178,1.0,7.0,93,0.04,,,0.99,0.000000,,2013-10-28 12:11:00,
2013-10-28 04:21:00,48.0,46.0,-100.00,South,178,1.0,7.0,93,0.04,,,0.99,0.000000,,2013-10-28 12:21:00,
2013-10-28 04:52:00,49.0,46.0,-100.00,NE,46,3.0,7.0,89,0.01,,,0.99,0.000000,,2013-10-28 12:52:00,
2013-10-28 05:01:00,49.0,46.0,-100.00,NE,46,3.0,7.0,89,0.01,,,0.99,0.000000,,2013-10-28 13:01:00,
2013-10-28 05:11:00,49.0,46.0,-100.00,NE,46,3.0,7.0,89,0.01,,,0.99,0.000000,,2013-10-28 13:11:00,
2013-10-28 05:21:00,49.0,46.0,-100.00,NE,46,3.0,7.0,89,0.01,,,0.99,0.000000,,2013-10-28 13:21:00,
2013-10-28 05:52:00,48.0,47.0,-100.00,WNW,289,2.0,7.0,95,0.01,,,0.99,0.000000,,2013-10-28 13:52:00,
2013-10-28 06:02:00,48.0,47.0,-100.00,WNW,289,2.0,7.0,95,0.01,,,0.99,0.000000,,2013-10-28 14:02:00,
2013-10-28 06:11:00,48.0,47.0,-100.00,WNW,289,2.0,7.0,95,0.01,,,0.99,0.000000,,2013-10-28 14:11:00,
2013-10-28 06:21:00,48.0,47.0,-100.00,WNW,289,2.0,7.0,95,0.01,,,0.99,0.000000,,2013-10-28 14:21:00,
2013-10-28 06:52:00,48.0,45.0,-100.00,SSW,197,7.0,23.0,90,0.09,,,1.04,0.000000,,2013-10-28 14:52:00,
2013-10-28 07:02:00,48.0,45.0,-100.00,SSW,197,7.0,23.0,90,0.09,,,1.04,0.000000,,2013-10-28 15:02:00,
2013-10-28 07:11:00,48.0,45.0,-100.00,SSW,197,7.0,23.0,90,0.09,,,1.04,0.000000,,2013-10-28 15:11:00,
2013-10-28 07:21:00,48.0,45.0,-100.00,SSW,197,7.0,23.0,90,0.09,,,1.04,0.000000,,2013-10-28 15:21:00,
2013-10-28 07:53:00,48.0,46.0,-100.00,East,83,4.0,11.0,92,0.18,,,1.19,0.000000,,2013-10-28 15:53:00,
2013-10-28 08:03:00,48.0,46.0,-100.00,East,83,4.0,11.0,92,0.18,,,1.19,0.000000,,2013-10-28 16:03:00,
2013-10-28 08:13:00,48.0,46.0,-100.00,East,83,4.0,11.0,92,0.18,,,1.19,0.000000,,2013-10-28 16:13:00,
2013-10-28 08:23:00,48.0,46.0,-100.00,East,83,4.0,11.0,92,0.18,,,1.19,0.000000,,2013-10-28 16:23:00,
2013-10-28 08:53:00,47.0,46.0,-100.00,NNE,27,1.0,4.0,96,0.12,,,1.25,0.000000,,2013-10-28 16:53:00,
2013-10-28 09:02:00,47.0,46.0,-100.00,NNE,27,1.0,4.0,96,0.12,,,1.25,0.000000,,2013-10-28 17:02:00,
2013-10-28 09:12:00,47.0,46.0,-100.00,NNE,27,1.0,4.0,96,0.12,,,1.25,0.000000,,2013-10-28 17:12:00,
2013-10-28 09:22:00,47.0,46.0,-100.00,NNE,27,1.0,4.0,96,0.12,,,1.25,0.000000,,2013-10-28 17:22:00,
2013-10-28 09:52:00,47.0,46.0,-100.00,WNW,283,0.0,3.0,95,0.14,,,-99.99,0.000000,,2013-10-28 17:52:00,
2013-10-28 10:02:00,47.0,46.0,-100.00,WNW,283,0.0,3.0,95,0.14,,,-99.99,0.000000,,2013-10-28 18:02:00,
2013-10-28 10:12:00,47.0,46.0,-100.00,WNW,283,0.0,3.0,95,0.14,,,-99.99,0.000000,,2013-10-28 18:12:00,
2013-10-28 10:21:00,47.0,46.0,-100.00,WNW,283,0.0,3.0,95,0.14,,,-99.99,0.000000,,2013-10-28 18:21:00,
2013-10-28 10:52:00,46.0,45.0,-100.00,NE,40,2.0,3.0,97,0.15,,,1.44,2.000000,,2013-10-28 18:52:00,
2013-10-28 11:01:00,46.0,45.0,-100.00,NE,40,2.0,3.0,97,0.15,,,1.44,2.000000,,2013-10-28 19:01:00,
2013-10-28 11:11:00,46.0,45.0,-100.00,NE,40,2.0,3.0,97,0.15,,,1.44,2.000000,,2013-10-28 19:11:00,
2013-10-28 11:21:00,46.0,45.0,-100.00,NE,40,2.0,3.0,97,0.15,,,1.44,2.000000,,2013-10-28 19:21:00,
2013-10-28 11:52:00,47.0,46.0,-100.00,SSE,159,0.0,5.0,97,0.18,,,1.59,4.000000,,2013-10-28 19:52:00,
2013-10-28 12:02:00,47.0,46.0,-100.00,SSE,159,0.0,5.0,97,0.18,,,1.59,4.000000,,2013-10-28 20:02:00,
2013-10-28 12:11:00,47.0,46.0,-100.00,SSE,159,0.0,5.0,97,0.18,,,1.59,4.000000,,2013-10-28 20:11:00,
2013-10-28 12:21:00,47.0,46.0,-100.00,SSE,159,0.0,5.0,97,0.18,,,1.59,4.000000,,2013-10-28 20:21:00,
2013-10-28 12:52:00,45.0,44.0,-100.00,SSW,202,4.0,15.0,95,0.14,,,1.71,8.000000,,2013-10-28 20:52:00,
2013-10-28 13:02:00,45.0,44.0,-100.00,SSW,202,4.0,15.0,95,0.14,,,1.71,8.000000,,2013-10-28 21:02:00,
2013-10-28 13:11:00,45.0,44.0,-100.00,SSW,202,4.0,15.0,95,0.14,,,1.71,8.000000,,2013-10-28 21:11:00,
2013-10-28 13:21:00,45.0,44.0,-100.00,SSW,202,4.0,15.0,95,0.14,,,1.71,8.000000,,2013-10-28 21:21:00,
2013-10-28 13:54:00,45.0,44.0,-100.00,South,185,3.0,11.0,95,0.14,,,1.83,19.000000,,2013-10-28 21:54:00,
2013-10-28 14:03:00,45.0,44.0,-100.00,South,185,3.0,11.0,95,0.14,,,1.83,19.000000,,2013-10-28 22:03:00,
2013-10-28 14:13:00,45.0,44.0,-100.00,South,185,3.0,11.0,95,0.14,,,1.83,19.000000,,2013-10-28 22:13:00,
2013-10-28 14:23:00,45.0,44.0,-100.00,South,185,3.0,11.0,95,0.14,,,1.83,19.000000,,2013-10-28 22:23:00,
2013-10-28 14:53:00,45.0,43.0,-100.00,SSW,205,11.0,19.0,94,0.07,,,1.87,28.000000,,2013-10-28 22:53:00,
2013-10-28 15:03:00,45.0,43.0,-100.00,SSW,205,11.0,19.0,94,0.07,,,1.87,28.000000,,2013-10-28 23:03:00,
2013-10-28 15:12:00,45.0,43.0,-100.00,SSW,205,11.0,19.0,94,0.07,,,1.87,28.000000,,2013-10-28 23:12:00,
2013-10-28 15:22:00,45.0,43.0,-100.00,SSW,205,11.0,19.0,94,0.07,,,1.87,28.000000,,2013-10-28 23:22:00,
2013-10-28 15:52:00,46.0,44.0,-100.00,South,185,6.0,14.0,94,0.01,,,1.80,66.000000,,2013-10-28 23:52:00,
2013-10-28 16:01:00,46.0,44.0,-100.00,South,185,6.0,14.0,94,0.01,,,1.80,66.000000,,2013-10-29 00:01:00,
2013-10-28 16:11:00,46.0,44.0,-100.00,South,185,6.0,14.0,94,0.01,,,1.80,66.000000,,2013-10-29 00:11:00,
2013-10-28 16:21:00,46.0,44.0,-100.00,South,185,6.0,14.0,94,0.01,,,1.80,66.000000,,2013-10-29 00:21:00,
2013-10-28 16:52:00,46.0,43.0,-100.00,SSW,202,9.0,14.0,88,0.00,,,-99.99,100.000000,,2013-10-29 00:52:00,
2013-10-28 17:01:00,46.0,43.0,-100.00,SSW,202,9.0,14.0,88,0.00,,,-99.99,100.000000,,2013-10-29 01:01:00,
2013-10-28 17:11:00,46.0,43.0,-100.00,SSW,202,9.0,14.0,88,0.00,,,-99.99,100.000000,,2013-10-29 01:11:00,
2013-10-28 17:21:00,46.0,43.0,-100.00,SSW,202,9.0,14.0,88,0.00,,,-99.99,100.000000,,2013-10-29 01:21:00,
2013-10-28 17:53:00,46.0,41.0,-100.00,SSW,210,10.0,24.0,83,0.00,,,1.58,46.000000,,2013-10-29 01:53:00,
2013-10-28 18:02:00,46.0,41.0,-100.00,SSW,210,10.0,24.0,83,0.00,,,1.58,46.000000,,2013-10-29 02:02:00,
2013-10-28 18:11:00,46.0,41.0,-100.00,SSW,210,10.0,24.0,83,0.00,,,1.58,46.000000,,2013-10-29 02:11:00,
2013-10-28 18:21:00,46.0,41.0,-100.00,SSW,210,10.0,24.0,83,0.00,,,1.58,46.000000,,2013-10-29 02:21:00,
2013-10-28 18:27:00,44.0,41.0,-100.00,SSW,204,5.0,22.0,89,0.00,,,1.39,17.000000,,2013-10-29 02:27:00,
2013-10-28 18:54:00,44.0,41.0,-100.00,SSW,204,5.0,22.0,89,0.00,,,1.39,17.000000,,2013-10-29 02:54:00,
2013-10-28 19:03:00,44.0,41.0,-100.00,SSW,204,5.0,22.0,89,0.00,,,1.39,17.000000,,2013-10-29 03:03:00,
2013-10-28 19:14:00,44.0,41.0,-100.00,SSW,204,5.0,22.0,89,0.00,,,1.39,17.000000,,2013-10-29 03:14:00,
2013-10-28 19:55:00,43.0,40.0,-100.00,SSW,195,4.0,11.0,89,0.00,,,1.35,0.000000,,2013-10-29 03:55:00,
2013-10-28 20:03:00,43.0,40.0,-100.00,SSW,195,4.0,11.0,89,0.00,,,1.35,0.000000,,2013-10-29 04:03:00,
2013-10-28 20:13:00,43.0,40.0,-100.00,SSW,195,4.0,11.0,89,0.00,,,1.35,0.000000,,2013-10-29 04:13:00,
2013-10-28 20:24:00,43.0,40.0,-100.00,SSW,195,4.0,11.0,89,0.00,,,1.35,0.000000,,2013-10-29 04:24:00,
2013-10-28 20:57:00,42.0,39.0,-100.00,SSE,156,1.0,9.0,90,0.00,,,1.34,0.000000,,2013-10-29 04:57:00,
2013-10-28 21:04:00,42.0,39.0,-100.00,SSE,156,1.0,9.0,90,0.00,,,1.34,0.000000,,2013-10-29 05:04:00,
2013-10-28 21:18:00,42.0,39.0,-100.00,SSE,156,1.0,9.0,90,0.00,,,1.34,0.000000,,2013-10-29 05:18:00,
2013-10-28 21:52:00,43.0,39.0,-100.00,SSW,206,8.0,21.0,86,0.00,,,1.33,0.000000,,2013-10-29 05:52:00,
2013-10-28 22:06:00,43.0,39.0,-100.00,SSW,206,8.0,21.0,86,0.00,,,1.33,0.000000,,2013-10-29 06:06:00,
2013-10-28 22:16:00,43.0,39.0,-100.00,SSW,206,8.0,21.0,86,0.00,,,1.33,0.000000,,2013-10-29 06:16:00,
2013-10-28 22:25:00,43.0,39.0,-100.00,SSW,206,8.0,21.0,86,0.00,,,1.33,0.000000,,2013-10-29 06:25:00,
2013-10-28 22:52:00,44.0,40.0,-100.00,SSW,194,10.0,19.0,85,0.00,,,1.33,0.000000,,2013-10-29 06:52:00,
2013-10-28 23:01:00,44.0,40.0,-100.00,SSW,194,10.0,19.0,85,0.00,,,1.33,0.000000,,2013-10-29 07:01:00,
2013-10-28 23:11:00,44.0,40.0,-100.00,SSW,194,10.0,19.0,85,0.00,,,1.33,0.000000,,2013-10-29 07:11:00,
2013-10-28 23:24:00,44.0,40.0,-100.00,SSW,194,10.0,19.0,85,0.00,,,1.33,0.000000,,2013-10-29 07:24:00,
2013-10-28 23:55:00,44.0,40.0,-100.00,SSW,197,9.0,17.0,85,0.00,,,1.31,0.000000,,2013-10-29 07:55:00,